sensor_id;sensor_type;location;lat;lon;timestamp;temperature;humidity
35246;DHT22;21379;50.962;6.960;2022-12-18T00:01:59;-4.20;99.90
35246;DHT22;21379;50.962;6.960;2022-12-18T00:04:26;-4.20;99.90
35246;DHT22;21379;50.962;6.960;2022-12-18T00:06:53;-4.20;99.90
35246;DHT22;21379;50.962;6.960;2022-12-18T00:09:20;-4.20;99.90
35246;DHT22;21379;50.962;6.960;2022-12-18T00:11:47;-4.10;99.90
35246;DHT22;21379;50.962;6.960;2022-12-18T00:14:14;-4.20;99.90
35246;DHT22;21379;50.962;6.960;2022-12-18T00:16:45;-4.30;99.90
35246;DHT22;21379;50.962;6.960;2022-12-18T00:19:12;-4.30;99.90
35246;DHT22;21379;50.962;6.960;2022-12-18T00:21:39;-4.20;99.90
35246;DHT22;21379;50.962;6.960;2022-12-18T00:24:07;-4.20;99.90
35246;DHT22;21379;50.962;6.960;2022-12-18T00:26:35;-4.20;99.90
35246;DHT22;21379;50.962;6.960;2022-12-18T00:29:04;-4.20;99.90
35246;DHT22;21379;50.962;6.960;2022-12-18T00:31:33;-4.30;99.90
35246;DHT22;21379;50.962;6.960;2022-12-18T00:34:02;-4.30;99.90
35246;DHT22;21379;50.962;6.960;2022-12-18T00:36:30;-4.30;99.90
35246;DHT22;21379;50.962;6.960;2022-12-18T00:38:58;-4.30;99.90
35246;DHT22;21379;50.962;6.960;2022-12-18T00:41:25;-4.30;99.90
35246;DHT22;21379;50.962;6.960;2022-12-18T00:44:10;-4.30;99.90
35246;DHT22;21379;50.962;6.960;2022-12-18T00:46:37;-4.40;99.90
35246;DHT22;21379;50.962;6.960;2022-12-18T00:49:05;-4.40;99.90
35246;DHT22;21379;50.962;6.960;2022-12-18T00:51:35;-4.30;99.90
35246;DHT22;21379;50.962;6.960;2022-12-18T00:54:02;-4.30;99.90
35246;DHT22;21379;50.962;6.960;2022-12-18T00:56:29;-4.20;99.90
35246;DHT22;21379;50.962;6.960;2022-12-18T00:58:55;-4.20;99.90
35246;DHT22;21379;50.962;6.960;2022-12-18T01:01:22;-4.20;99.90
35246;DHT22;21379;50.962;6.960;2022-12-18T01:03:49;-4.20;99.90
35246;DHT22;21379;50.962;6.960;2022-12-18T01:06:17;-4.30;99.90
35246;DHT22;21379;50.962;6.960;2022-12-18T01:08:44;-4.30;99.90
35246;DHT22;21379;50.962;6.960;2022-12-18T01:11:12;-4.30;99.90
35246;DHT22;21379;50.962;6.960;2022-12-18T01:13:40;-4.30;99.90
35246;DHT22;21379;50.962;6.960;2022-12-18T01:16:07;-4.20;99.90
35246;DHT22;21379;50.962;6.960;2022-12-18T01:18:34;-4.20;99.90
35246;DHT22;21379;50.962;6.960;2022-12-18T01:21:06;-4.20;99.90
35246;DHT22;21379;50.962;6.960;2022-12-18T01:23:35;-4.10;99.90
35246;DHT22;21379;50.962;6.960;2022-12-18T01:26:05;-4.10;99.90
35246;DHT22;21379;50.962;6.960;2022-12-18T01:28:32;-4.20;99.90
35246;DHT22;21379;50.962;6.960;2022-12-18T01:31:10;-4.10;99.90
35246;DHT22;21379;50.962;6.960;2022-12-18T01:33:37;-4.20;99.90
35246;DHT22;21379;50.962;6.960;2022-12-18T01:36:04;-4.20;99.90
35246;DHT22;21379;50.962;6.960;2022-12-18T01:38:31;-4.20;99.90
35246;DHT22;21379;50.962;6.960;2022-12-18T01:40:59;-4.20;99.90
35246;DHT22;21379;50.962;6.960;2022-12-18T01:43:45;-4.20;99.90
35246;DHT22;21379;50.962;6.960;2022-12-18T01:46:12;-4.20;99.90
35246;DHT22;21379;50.962;6.960;2022-12-18T01:48:39;-4.10;99.90
35246;DHT22;21379;50.962;6.960;2022-12-18T01:51:09;-4.20;99.90
35246;DHT22;21379;50.962;6.960;2022-12-18T01:53:37;-4.20;99.90
35246;DHT22;21379;50.962;6.960;2022-12-18T01:56:07;-4.20;99.90
35246;DHT22;21379;50.962;6.960;2022-12-18T01:58:39;-4.20;99.90
35246;DHT22;21379;50.962;6.960;2022-12-18T02:01:08;-4.20;99.90
35246;DHT22;21379;50.962;6.960;2022-12-18T02:03:35;-4.20;99.90
35246;DHT22;21379;50.962;6.960;2022-12-18T02:06:07;-4.10;99.90
35246;DHT22;21379;50.962;6.960;2022-12-18T02:08:45;-4.20;99.90
35246;DHT22;21379;50.962;6.960;2022-12-18T02:11:18;-4.20;99.90
35246;DHT22;21379;50.962;6.960;2022-12-18T02:13:53;-4.20;99.90
35246;DHT22;21379;50.962;6.960;2022-12-18T02:16:24;-4.20;99.90
35246;DHT22;21379;50.962;6.960;2022-12-18T02:18:56;-4.30;99.90
35246;DHT22;21379;50.962;6.960;2022-12-18T02:21:31;-4.30;99.90
35246;DHT22;21379;50.962;6.960;2022-12-18T02:24:12;-4.30;99.90
35246;DHT22;21379;50.962;6.960;2022-12-18T02:26:45;-4.30;99.90
35246;DHT22;21379;50.962;6.960;2022-12-18T02:29:17;-4.30;99.90
35246;DHT22;21379;50.962;6.960;2022-12-18T02:31:51;-4.20;99.90
35246;DHT22;21379;50.962;6.960;2022-12-18T02:34:20;-4.20;99.90
35246;DHT22;21379;50.962;6.960;2022-12-18T02:36:49;-4.20;99.90
35246;DHT22;21379;50.962;6.960;2022-12-18T02:39:18;-4.20;99.90
35246;DHT22;21379;50.962;6.960;2022-12-18T02:41:47;-4.20;99.90
35246;DHT22;21379;50.962;6.960;2022-12-18T02:44:15;-4.20;99.90
35246;DHT22;21379;50.962;6.960;2022-12-18T02:46:43;-4.20;99.90
35246;DHT22;21379;50.962;6.960;2022-12-18T02:49:21;-4.30;99.90
35246;DHT22;21379;50.962;6.960;2022-12-18T02:51:54;-4.30;99.90
35246;DHT22;21379;50.962;6.960;2022-12-18T02:54:36;-4.30;99.90
35246;DHT22;21379;50.962;6.960;2022-12-18T02:57:14;-4.20;99.90
35246;DHT22;21379;50.962;6.960;2022-12-18T02:59:49;-4.20;99.90
35246;DHT22;21379;50.962;6.960;2022-12-18T03:02:23;-4.20;99.90
35246;DHT22;21379;50.962;6.960;2022-12-18T03:04:57;-4.20;99.90
35246;DHT22;21379;50.962;6.960;2022-12-18T03:07:36;-4.30;99.90
35246;DHT22;21379;50.962;6.960;2022-12-18T03:10:07;-4.30;99.90
35246;DHT22;21379;50.962;6.960;2022-12-18T03:12:39;-4.30;99.90
35246;DHT22;21379;50.962;6.960;2022-12-18T03:15:10;-4.30;99.90
35246;DHT22;21379;50.962;6.960;2022-12-18T03:17:41;-4.30;99.90
35246;DHT22;21379;50.962;6.960;2022-12-18T03:20:12;-4.20;99.90
35246;DHT22;21379;50.962;6.960;2022-12-18T03:22:42;-4.30;99.90
35246;DHT22;21379;50.962;6.960;2022-12-18T03:25:11;-4.30;99.90
35246;DHT22;21379;50.962;6.960;2022-12-18T03:27:43;-4.30;99.90
35246;DHT22;21379;50.962;6.960;2022-12-18T03:30:15;-4.30;99.90
35246;DHT22;21379;50.962;6.960;2022-12-18T03:32:46;-4.30;99.90
35246;DHT22;21379;50.962;6.960;2022-12-18T03:35:26;-4.30;99.90
35246;DHT22;21379;50.962;6.960;2022-12-18T03:37:55;-4.30;99.90
35246;DHT22;21379;50.962;6.960;2022-12-18T03:40:26;-4.40;99.90
35246;DHT22;21379;50.962;6.960;2022-12-18T03:43:01;-4.40;99.90
35246;DHT22;21379;50.962;6.960;2022-12-18T03:45:34;-4.40;99.90
35246;DHT22;21379;50.962;6.960;2022-12-18T03:48:05;-4.50;99.90
35246;DHT22;21379;50.962;6.960;2022-12-18T03:50:38;-4.50;99.90
35246;DHT22;21379;50.962;6.960;2022-12-18T03:53:18;-4.50;99.90
35246;DHT22;21379;50.962;6.960;2022-12-18T03:55:48;-4.50;99.90
35246;DHT22;21379;50.962;6.960;2022-12-18T03:58:20;-4.50;99.90
35246;DHT22;21379;50.962;6.960;2022-12-18T04:00:48;-4.50;99.90
35246;DHT22;21379;50.962;6.960;2022-12-18T04:03:16;-4.30;99.90
35246;DHT22;21379;50.962;6.960;2022-12-18T04:05:46;-4.40;99.90
35246;DHT22;21379;50.962;6.960;2022-12-18T04:08:14;-4.30;99.90
35246;DHT22;21379;50.962;6.960;2022-12-18T04:10:41;-4.30;99.90
35246;DHT22;21379;50.962;6.960;2022-12-18T04:13:09;-4.30;99.90
35246;DHT22;21379;50.962;6.960;2022-12-18T04:15:38;-4.30;99.90
35246;DHT22;21379;50.962;6.960;2022-12-18T04:18:06;-4.30;99.90
35246;DHT22;21379;50.962;6.960;2022-12-18T04:20:33;-4.30;99.90
35246;DHT22;21379;50.962;6.960;2022-12-18T04:23:00;-4.30;99.90
35246;DHT22;21379;50.962;6.960;2022-12-18T04:25:27;-4.30;99.90
35246;DHT22;21379;50.962;6.960;2022-12-18T04:27:54;-4.30;99.90
35246;DHT22;21379;50.962;6.960;2022-12-18T04:30:21;-4.30;99.90
35246;DHT22;21379;50.962;6.960;2022-12-18T04:32:49;-4.30;99.90
35246;DHT22;21379;50.962;6.960;2022-12-18T04:35:16;-4.30;99.90
35246;DHT22;21379;50.962;6.960;2022-12-18T04:37:43;-4.30;99.90
35246;DHT22;21379;50.962;6.960;2022-12-18T04:40:10;-4.30;99.90
35246;DHT22;21379;50.962;6.960;2022-12-18T04:42:38;-4.30;99.90
35246;DHT22;21379;50.962;6.960;2022-12-18T04:45:07;-4.30;99.90
35246;DHT22;21379;50.962;6.960;2022-12-18T04:47:34;-4.30;99.90
35246;DHT22;21379;50.962;6.960;2022-12-18T04:50:02;-4.30;99.90
35246;DHT22;21379;50.962;6.960;2022-12-18T04:52:29;-4.40;99.90
35246;DHT22;21379;50.962;6.960;2022-12-18T04:54:56;-4.40;99.90
35246;DHT22;21379;50.962;6.960;2022-12-18T04:57:23;-4.40;99.90
35246;DHT22;21379;50.962;6.960;2022-12-18T04:59:49;-4.40;99.90
35246;DHT22;21379;50.962;6.960;2022-12-18T05:02:16;-4.40;99.90
35246;DHT22;21379;50.962;6.960;2022-12-18T05:04:43;-4.50;99.90
35246;DHT22;21379;50.962;6.960;2022-12-18T05:07:11;-4.50;99.90
35246;DHT22;21379;50.962;6.960;2022-12-18T05:09:38;-4.50;99.90
35246;DHT22;21379;50.962;6.960;2022-12-18T05:12:05;-4.50;99.90
35246;DHT22;21379;50.962;6.960;2022-12-18T05:14:32;-4.50;99.90
35246;DHT22;21379;50.962;6.960;2022-12-18T05:16:59;-4.50;99.90
35246;DHT22;21379;50.962;6.960;2022-12-18T05:19:25;-4.50;99.90
35246;DHT22;21379;50.962;6.960;2022-12-18T05:21:52;-4.60;99.90
35246;DHT22;21379;50.962;6.960;2022-12-18T05:24:20;-4.70;99.90
35246;DHT22;21379;50.962;6.960;2022-12-18T05:26:47;-4.70;99.90
35246;DHT22;21379;50.962;6.960;2022-12-18T05:29:14;-4.60;99.90
35246;DHT22;21379;50.962;6.960;2022-12-18T05:31:41;-4.60;99.90
35246;DHT22;21379;50.962;6.960;2022-12-18T05:34:07;-4.60;99.90
35246;DHT22;21379;50.962;6.960;2022-12-18T05:36:34;-4.60;99.90
35246;DHT22;21379;50.962;6.960;2022-12-18T05:39:01;-4.60;99.90
35246;DHT22;21379;50.962;6.960;2022-12-18T05:41:30;-4.60;99.90
35246;DHT22;21379;50.962;6.960;2022-12-18T05:43:56;-4.60;99.90
35246;DHT22;21379;50.962;6.960;2022-12-18T05:46:24;-4.70;99.90
35246;DHT22;21379;50.962;6.960;2022-12-18T05:48:51;-4.70;99.90
35246;DHT22;21379;50.962;6.960;2022-12-18T05:51:20;-4.70;99.90
35246;DHT22;21379;50.962;6.960;2022-12-18T05:53:48;-4.70;99.90
35246;DHT22;21379;50.962;6.960;2022-12-18T05:56:16;-4.70;99.90
35246;DHT22;21379;50.962;6.960;2022-12-18T05:58:46;-4.70;99.90
35246;DHT22;21379;50.962;6.960;2022-12-18T06:01:15;-4.70;99.90
35246;DHT22;21379;50.962;6.960;2022-12-18T06:03:43;-4.70;99.90
35246;DHT22;21379;50.962;6.960;2022-12-18T06:06:14;-4.60;99.90
35246;DHT22;21379;50.962;6.960;2022-12-18T06:08:41;-4.60;99.90
35246;DHT22;21379;50.962;6.960;2022-12-18T06:11:07;-4.70;99.90
35246;DHT22;21379;50.962;6.960;2022-12-18T06:13:34;-4.60;99.90
35246;DHT22;21379;50.962;6.960;2022-12-18T06:16:04;-4.60;99.90
35246;DHT22;21379;50.962;6.960;2022-12-18T06:18:31;-4.60;99.90
35246;DHT22;21379;50.962;6.960;2022-12-18T06:20:58;-4.60;99.90
35246;DHT22;21379;50.962;6.960;2022-12-18T06:23:26;-4.50;99.90
35246;DHT22;21379;50.962;6.960;2022-12-18T06:25:53;-4.50;99.90
35246;DHT22;21379;50.962;6.960;2022-12-18T06:28:20;-4.50;99.90
35246;DHT22;21379;50.962;6.960;2022-12-18T06:30:47;-4.50;99.90
35246;DHT22;21379;50.962;6.960;2022-12-18T06:33:16;-4.50;99.90
35246;DHT22;21379;50.962;6.960;2022-12-18T06:35:43;-4.50;99.90
35246;DHT22;21379;50.962;6.960;2022-12-18T06:38:10;-4.50;99.90
35246;DHT22;21379;50.962;6.960;2022-12-18T06:40:37;-4.50;99.90
35246;DHT22;21379;50.962;6.960;2022-12-18T06:43:04;-4.50;99.90
35246;DHT22;21379;50.962;6.960;2022-12-18T06:45:31;-4.50;99.90
35246;DHT22;21379;50.962;6.960;2022-12-18T06:47:58;-4.50;99.90
35246;DHT22;21379;50.962;6.960;2022-12-18T06:50:26;-4.40;99.90
35246;DHT22;21379;50.962;6.960;2022-12-18T06:52:53;-4.50;99.90
35246;DHT22;21379;50.962;6.960;2022-12-18T06:55:20;-4.40;99.90
35246;DHT22;21379;50.962;6.960;2022-12-18T06:57:47;-4.40;99.90
35246;DHT22;21379;50.962;6.960;2022-12-18T07:00:14;-4.40;99.90
35246;DHT22;21379;50.962;6.960;2022-12-18T07:02:41;-4.40;99.90
35246;DHT22;21379;50.962;6.960;2022-12-18T07:05:08;-4.40;99.90
35246;DHT22;21379;50.962;6.960;2022-12-18T07:07:36;-4.40;99.90
35246;DHT22;21379;50.962;6.960;2022-12-18T07:10:03;-4.40;99.90
35246;DHT22;21379;50.962;6.960;2022-12-18T07:12:30;-4.40;99.90
35246;DHT22;21379;50.962;6.960;2022-12-18T07:14:57;-4.40;99.90
35246;DHT22;21379;50.962;6.960;2022-12-18T07:17:24;-4.40;99.90
35246;DHT22;21379;50.962;6.960;2022-12-18T07:19:51;-4.40;99.90
35246;DHT22;21379;50.962;6.960;2022-12-18T07:22:18;-4.40;99.90
35246;DHT22;21379;50.962;6.960;2022-12-18T07:24:46;-4.40;99.90
35246;DHT22;21379;50.962;6.960;2022-12-18T07:27:12;-4.30;99.90
35246;DHT22;21379;50.962;6.960;2022-12-18T07:29:39;-4.30;99.90
35246;DHT22;21379;50.962;6.960;2022-12-18T07:32:06;-4.30;99.90
35246;DHT22;21379;50.962;6.960;2022-12-18T07:34:33;-4.30;99.90
35246;DHT22;21379;50.962;6.960;2022-12-18T07:37:00;-4.30;99.90
35246;DHT22;21379;50.962;6.960;2022-12-18T07:39:27;-4.30;99.90
35246;DHT22;21379;50.962;6.960;2022-12-18T07:41:56;-4.30;99.90
35246;DHT22;21379;50.962;6.960;2022-12-18T07:44:40;-4.40;99.90
35246;DHT22;21379;50.962;6.960;2022-12-18T07:47:07;-4.30;99.90
35246;DHT22;21379;50.962;6.960;2022-12-18T07:49:34;-4.40;99.90
35246;DHT22;21379;50.962;6.960;2022-12-18T07:52:01;-4.40;99.90
35246;DHT22;21379;50.962;6.960;2022-12-18T07:54:28;-4.40;99.90
35246;DHT22;21379;50.962;6.960;2022-12-18T07:56:56;-4.30;99.90
35246;DHT22;21379;50.962;6.960;2022-12-18T07:59:23;-4.30;99.90
35246;DHT22;21379;50.962;6.960;2022-12-18T08:01:49;-4.30;99.90
35246;DHT22;21379;50.962;6.960;2022-12-18T08:04:16;-4.30;99.90
35246;DHT22;21379;50.962;6.960;2022-12-18T08:06:43;-4.30;99.90
35246;DHT22;21379;50.962;6.960;2022-12-18T08:09:10;-4.30;99.90
35246;DHT22;21379;50.962;6.960;2022-12-18T08:11:37;-4.20;99.90
35246;DHT22;21379;50.962;6.960;2022-12-18T08:14:05;-4.20;99.90
35246;DHT22;21379;50.962;6.960;2022-12-18T08:16:32;-4.10;99.90
35246;DHT22;21379;50.962;6.960;2022-12-18T08:18:58;-4.00;99.90
35246;DHT22;21379;50.962;6.960;2022-12-18T08:21:27;-3.90;99.90
35246;DHT22;21379;50.962;6.960;2022-12-18T08:23:56;-3.90;99.90
35246;DHT22;21379;50.962;6.960;2022-12-18T08:26:23;-3.80;99.90
35246;DHT22;21379;50.962;6.960;2022-12-18T08:28:51;-3.70;99.90
35246;DHT22;21379;50.962;6.960;2022-12-18T08:31:20;-3.70;99.90
35246;DHT22;21379;50.962;6.960;2022-12-18T08:33:49;-3.60;99.90
35246;DHT22;21379;50.962;6.960;2022-12-18T08:36:16;-3.50;99.90
35246;DHT22;21379;50.962;6.960;2022-12-18T08:38:42;-3.40;99.90
35246;DHT22;21379;50.962;6.960;2022-12-18T08:41:11;-3.40;99.90
35246;DHT22;21379;50.962;6.960;2022-12-18T08:43:39;-3.30;99.90
35246;DHT22;21379;50.962;6.960;2022-12-18T08:46:26;-3.20;99.90
35246;DHT22;21379;50.962;6.960;2022-12-18T08:48:54;-3.10;99.90
35246;DHT22;21379;50.962;6.960;2022-12-18T08:51:21;-3.00;99.90
35246;DHT22;21379;50.962;6.960;2022-12-18T08:53:48;-3.00;99.90
35246;DHT22;21379;50.962;6.960;2022-12-18T08:56:15;-2.90;99.90
35246;DHT22;21379;50.962;6.960;2022-12-18T08:58:42;-2.80;99.90
35246;DHT22;21379;50.962;6.960;2022-12-18T09:01:11;-2.70;99.90
35246;DHT22;21379;50.962;6.960;2022-12-18T09:03:40;-2.60;99.90
35246;DHT22;21379;50.962;6.960;2022-12-18T09:06:07;-2.50;99.90
35246;DHT22;21379;50.962;6.960;2022-12-18T09:08:34;-2.50;99.90
35246;DHT22;21379;50.962;6.960;2022-12-18T09:11:02;-2.30;99.90
35246;DHT22;21379;50.962;6.960;2022-12-18T09:13:29;-2.20;99.90
35246;DHT22;21379;50.962;6.960;2022-12-18T09:15:56;-2.10;99.90
35246;DHT22;21379;50.962;6.960;2022-12-18T09:18:23;-2.10;99.90
35246;DHT22;21379;50.962;6.960;2022-12-18T09:20:52;-2.00;99.90
35246;DHT22;21379;50.962;6.960;2022-12-18T09:23:19;-2.00;99.90
35246;DHT22;21379;50.962;6.960;2022-12-18T09:25:45;-1.90;99.90
35246;DHT22;21379;50.962;6.960;2022-12-18T09:28:13;-1.90;99.90
35246;DHT22;21379;50.962;6.960;2022-12-18T09:30:42;-1.80;99.90
35246;DHT22;21379;50.962;6.960;2022-12-18T09:33:10;-1.80;99.90
35246;DHT22;21379;50.962;6.960;2022-12-18T09:35:36;-1.60;99.90
35246;DHT22;21379;50.962;6.960;2022-12-18T09:38:05;-1.60;99.90
35246;DHT22;21379;50.962;6.960;2022-12-18T09:40:35;-1.50;99.90
35246;DHT22;21379;50.962;6.960;2022-12-18T09:43:04;-1.50;99.90
35246;DHT22;21379;50.962;6.960;2022-12-18T09:45:40;-1.40;99.90
35246;DHT22;21379;50.962;6.960;2022-12-18T09:48:10;-1.50;99.90
35246;DHT22;21379;50.962;6.960;2022-12-18T09:50:41;-1.40;99.90
35246;DHT22;21379;50.962;6.960;2022-12-18T09:53:13;-1.30;99.90
35246;DHT22;21379;50.962;6.960;2022-12-18T09:55:43;-1.30;99.90
35246;DHT22;21379;50.962;6.960;2022-12-18T09:58:16;-1.30;99.90
35246;DHT22;21379;50.962;6.960;2022-12-18T10:00:45;-1.20;99.90
35246;DHT22;21379;50.962;6.960;2022-12-18T10:03:13;-1.20;99.90
35246;DHT22;21379;50.962;6.960;2022-12-18T10:05:45;-1.20;99.90
35246;DHT22;21379;50.962;6.960;2022-12-18T10:08:22;-1.10;99.90
35246;DHT22;21379;50.962;6.960;2022-12-18T11:08:00;-0.20;99.90
35246;DHT22;21379;50.962;6.960;2022-12-18T11:10:31;-0.10;99.90
35246;DHT22;21379;50.962;6.960;2022-12-18T11:13:10;-0.10;99.90
35246;DHT22;21379;50.962;6.960;2022-12-18T11:15:40;-0.20;99.90
35246;DHT22;21379;50.962;6.960;2022-12-18T11:18:16;-0.10;99.90
35246;DHT22;21379;50.962;6.960;2022-12-18T11:20:50;0.00;99.90
35246;DHT22;21379;50.962;6.960;2022-12-18T11:23:21;0.00;99.90
35246;DHT22;21379;50.962;6.960;2022-12-18T11:25:57;0.10;99.90
35246;DHT22;21379;50.962;6.960;2022-12-18T11:28:43;0.10;99.90
35246;DHT22;21379;50.962;6.960;2022-12-18T11:31:21;0.00;99.90
35246;DHT22;21379;50.962;6.960;2022-12-18T11:33:57;-0.10;99.90
35246;DHT22;21379;50.962;6.960;2022-12-18T11:36:25;0.00;99.90
35246;DHT22;21379;50.962;6.960;2022-12-18T11:39:00;0.10;99.90
35246;DHT22;21379;50.962;6.960;2022-12-18T11:41:31;0.10;99.90
35246;DHT22;21379;50.962;6.960;2022-12-18T11:44:22;0.00;99.90
35246;DHT22;21379;50.962;6.960;2022-12-18T11:46:55;0.00;99.90
35246;DHT22;21379;50.962;6.960;2022-12-18T11:49:25;0.00;99.90
35246;DHT22;21379;50.962;6.960;2022-12-18T11:51:57;0.00;99.90
35246;DHT22;21379;50.962;6.960;2022-12-18T11:54:26;0.00;99.90
35246;DHT22;21379;50.962;6.960;2022-12-18T11:56:58;0.00;99.90
35246;DHT22;21379;50.962;6.960;2022-12-18T11:59:30;0.00;99.90
35246;DHT22;21379;50.962;6.960;2022-12-18T12:02:11;0.00;99.90
35246;DHT22;21379;50.962;6.960;2022-12-18T12:04:50;0.10;99.90
35246;DHT22;21379;50.962;6.960;2022-12-18T12:07:31;0.00;99.90
35246;DHT22;21379;50.962;6.960;2022-12-18T12:10:13;0.10;99.90
35246;DHT22;21379;50.962;6.960;2022-12-18T12:12:56;0.00;99.90
35246;DHT22;21379;50.962;6.960;2022-12-18T12:15:34;-0.10;99.90
35246;DHT22;21379;50.962;6.960;2022-12-18T12:18:12;-0.10;99.90
35246;DHT22;21379;50.962;6.960;2022-12-18T12:20:47;-0.20;99.90
35246;DHT22;21379;50.962;6.960;2022-12-18T12:23:24;-0.20;99.90
35246;DHT22;21379;50.962;6.960;2022-12-18T12:25:57;-0.10;99.90
35246;DHT22;21379;50.962;6.960;2022-12-18T12:28:36;-0.10;99.90
35246;DHT22;21379;50.962;6.960;2022-12-18T12:31:12;-0.10;99.90
35246;DHT22;21379;50.962;6.960;2022-12-18T12:33:42;-0.10;99.90
35246;DHT22;21379;50.962;6.960;2022-12-18T12:36:16;-0.10;99.90
35246;DHT22;21379;50.962;6.960;2022-12-18T12:38:46;-0.10;99.90
35246;DHT22;21379;50.962;6.960;2022-12-18T12:41:19;-0.10;99.90
35246;DHT22;21379;50.962;6.960;2022-12-18T12:44:08;-0.10;99.90
35246;DHT22;21379;50.962;6.960;2022-12-18T12:46:39;-0.10;99.90
35246;DHT22;21379;50.962;6.960;2022-12-18T12:49:11;-0.10;99.90
35246;DHT22;21379;50.962;6.960;2022-12-18T12:51:41;-0.10;99.90
35246;DHT22;21379;50.962;6.960;2022-12-18T12:54:15;-0.10;99.90
35246;DHT22;21379;50.962;6.960;2022-12-18T12:56:48;-0.10;99.90
35246;DHT22;21379;50.962;6.960;2022-12-18T12:59:22;-0.10;99.90
35246;DHT22;21379;50.962;6.960;2022-12-18T13:01:54;-0.10;99.90
35246;DHT22;21379;50.962;6.960;2022-12-18T13:04:27;-0.10;99.90
35246;DHT22;21379;50.962;6.960;2022-12-18T13:07:01;-0.20;99.90
35246;DHT22;21379;50.962;6.960;2022-12-18T13:09:31;-0.30;99.90
35246;DHT22;21379;50.962;6.960;2022-12-18T13:12:04;-0.20;99.90
35246;DHT22;21379;50.962;6.960;2022-12-18T13:14:49;-0.20;99.90
35246;DHT22;21379;50.962;6.960;2022-12-18T13:17:30;-0.10;99.90
35246;DHT22;21379;50.962;6.960;2022-12-18T13:20:07;-0.20;99.90
35246;DHT22;21379;50.962;6.960;2022-12-18T13:22:36;-0.30;99.90
35246;DHT22;21379;50.962;6.960;2022-12-18T13:27:57;-0.20;99.90
35246;DHT22;21379;50.962;6.960;2022-12-18T13:30:48;-0.20;99.90
35246;DHT22;21379;50.962;6.960;2022-12-18T13:33:39;-0.20;99.90
35246;DHT22;21379;50.962;6.960;2022-12-18T13:36:15;-0.20;99.90
35246;DHT22;21379;50.962;6.960;2022-12-18T13:38:43;-0.10;99.90
35246;DHT22;21379;50.962;6.960;2022-12-18T13:41:31;-0.10;99.90
35246;DHT22;21379;50.962;6.960;2022-12-18T13:44:11;-0.10;99.90
35246;DHT22;21379;50.962;6.960;2022-12-18T13:46:43;-0.10;99.90
35246;DHT22;21379;50.962;6.960;2022-12-18T13:49:22;-0.10;99.90
35246;DHT22;21379;50.962;6.960;2022-12-18T13:51:50;-0.10;99.90
35246;DHT22;21379;50.962;6.960;2022-12-18T13:54:19;-0.10;99.90
35246;DHT22;21379;50.962;6.960;2022-12-18T13:56:48;-0.20;99.90
35246;DHT22;21379;50.962;6.960;2022-12-18T13:59:19;-0.20;99.90
35246;DHT22;21379;50.962;6.960;2022-12-18T14:01:50;-0.20;99.90
35246;DHT22;21379;50.962;6.960;2022-12-18T14:04:21;-0.30;99.90
35246;DHT22;21379;50.962;6.960;2022-12-18T14:06:51;-0.30;99.90
35246;DHT22;21379;50.962;6.960;2022-12-18T14:09:23;-0.30;99.90
35246;DHT22;21379;50.962;6.960;2022-12-18T14:11:51;-0.30;99.90
35246;DHT22;21379;50.962;6.960;2022-12-18T14:14:19;-0.40;99.90
35246;DHT22;21379;50.962;6.960;2022-12-18T14:16:47;-0.40;99.90
35246;DHT22;21379;50.962;6.960;2022-12-18T14:19:16;-0.40;99.90
35246;DHT22;21379;50.962;6.960;2022-12-18T14:21:47;-0.50;99.90
35246;DHT22;21379;50.962;6.960;2022-12-18T14:24:16;-0.60;99.90
35246;DHT22;21379;50.962;6.960;2022-12-18T14:26:43;-0.60;99.90
35246;DHT22;21379;50.962;6.960;2022-12-18T14:29:24;-0.60;99.90
35246;DHT22;21379;50.962;6.960;2022-12-18T14:32:12;-0.70;99.90
35246;DHT22;21379;50.962;6.960;2022-12-18T14:34:42;-0.70;99.90
35246;DHT22;21379;50.962;6.960;2022-12-18T14:37:10;-0.80;99.90
35246;DHT22;21379;50.962;6.960;2022-12-18T14:39:38;-0.80;99.90
35246;DHT22;21379;50.962;6.960;2022-12-18T14:42:05;-0.80;99.90
35246;DHT22;21379;50.962;6.960;2022-12-18T14:44:33;-0.80;99.90
35246;DHT22;21379;50.962;6.960;2022-12-18T14:47:00;-0.80;99.90
35246;DHT22;21379;50.962;6.960;2022-12-18T14:49:30;-0.80;99.90
35246;DHT22;21379;50.962;6.960;2022-12-18T14:51:59;-0.80;99.90
35246;DHT22;21379;50.962;6.960;2022-12-18T14:54:27;-0.90;99.90
35246;DHT22;21379;50.962;6.960;2022-12-18T14:56:59;-0.90;99.90
35246;DHT22;21379;50.962;6.960;2022-12-18T14:59:28;-0.90;99.90
35246;DHT22;21379;50.962;6.960;2022-12-18T15:02:03;-0.90;99.90
35246;DHT22;21379;50.962;6.960;2022-12-18T15:04:32;-0.90;99.90
35246;DHT22;21379;50.962;6.960;2022-12-18T15:07:06;-1.00;99.90
35246;DHT22;21379;50.962;6.960;2022-12-18T15:09:34;-0.90;99.90
35246;DHT22;21379;50.962;6.960;2022-12-18T15:12:01;-0.90;99.90
35246;DHT22;21379;50.962;6.960;2022-12-18T15:14:33;-1.00;99.90
35246;DHT22;21379;50.962;6.960;2022-12-18T15:17:05;-1.00;99.90
35246;DHT22;21379;50.962;6.960;2022-12-18T15:19:37;-1.00;99.90
35246;DHT22;21379;50.962;6.960;2022-12-18T15:22:11;-1.00;99.90
35246;DHT22;21379;50.962;6.960;2022-12-18T15:24:41;-1.00;99.90
35246;DHT22;21379;50.962;6.960;2022-12-18T15:27:20;-1.10;99.90
35246;DHT22;21379;50.962;6.960;2022-12-18T15:30:00;-1.10;99.90
35246;DHT22;21379;50.962;6.960;2022-12-18T15:32:28;-1.10;99.90
35246;DHT22;21379;50.962;6.960;2022-12-18T15:35:03;-1.10;99.90
35246;DHT22;21379;50.962;6.960;2022-12-18T15:37:30;-1.10;99.90
35246;DHT22;21379;50.962;6.960;2022-12-18T15:39:57;-1.10;99.90
35246;DHT22;21379;50.962;6.960;2022-12-18T15:42:24;-1.10;99.90
35246;DHT22;21379;50.962;6.960;2022-12-18T15:45:11;-1.10;99.90
35246;DHT22;21379;50.962;6.960;2022-12-18T15:47:40;-1.10;99.90
35246;DHT22;21379;50.962;6.960;2022-12-18T15:50:08;-1.10;99.90
35246;DHT22;21379;50.962;6.960;2022-12-18T15:52:39;-1.10;99.90
35246;DHT22;21379;50.962;6.960;2022-12-18T15:55:10;-1.20;99.90
35246;DHT22;21379;50.962;6.960;2022-12-18T15:57:56;-1.20;99.90
35246;DHT22;21379;50.962;6.960;2022-12-18T16:00:23;-1.10;99.90
35246;DHT22;21379;50.962;6.960;2022-12-18T16:02:51;-1.20;99.90
35246;DHT22;21379;50.962;6.960;2022-12-18T16:05:19;-1.20;99.90
35246;DHT22;21379;50.962;6.960;2022-12-18T16:07:47;-1.20;99.90
35246;DHT22;21379;50.962;6.960;2022-12-18T16:10:14;-1.20;99.90
35246;DHT22;21379;50.962;6.960;2022-12-18T16:12:41;-1.20;99.90
35246;DHT22;21379;50.962;6.960;2022-12-18T16:15:11;-1.20;99.90
35246;DHT22;21379;50.962;6.960;2022-12-18T16:17:39;-1.20;99.90
35246;DHT22;21379;50.962;6.960;2022-12-18T16:20:12;-1.20;99.90
35246;DHT22;21379;50.962;6.960;2022-12-18T16:22:41;-1.20;99.90
35246;DHT22;21379;50.962;6.960;2022-12-18T16:25:17;-1.20;99.90
35246;DHT22;21379;50.962;6.960;2022-12-18T16:27:50;-1.20;99.90
35246;DHT22;21379;50.962;6.960;2022-12-18T16:30:20;-1.20;99.90
35246;DHT22;21379;50.962;6.960;2022-12-18T16:32:47;-1.30;99.90
35246;DHT22;21379;50.962;6.960;2022-12-18T16:35:16;-1.20;99.90
35246;DHT22;21379;50.962;6.960;2022-12-18T16:37:44;-1.20;99.90
35246;DHT22;21379;50.962;6.960;2022-12-18T16:40:16;-1.20;99.90
35246;DHT22;21379;50.962;6.960;2022-12-18T16:42:50;-1.20;99.90
35246;DHT22;21379;50.962;6.960;2022-12-18T16:45:17;-1.20;99.90
35246;DHT22;21379;50.962;6.960;2022-12-18T16:47:45;-1.20;99.90
35246;DHT22;21379;50.962;6.960;2022-12-18T16:50:12;-1.20;99.90
35246;DHT22;21379;50.962;6.960;2022-12-18T16:52:40;-1.20;99.90